createdAt,value
2019-05-16T00:00:25.426Z,80.01
2019-05-16T00:01:01.397Z,79.82
2019-05-16T00:01:38.389Z,79.68
2019-05-16T00:02:14.551Z,79.68
2019-05-16T00:02:50.499Z,79.62
2019-05-16T00:03:28.032Z,79.63
2019-05-16T00:04:04.128Z,79.58
2019-05-16T00:04:40.007Z,79.46
2019-05-16T00:05:15.970Z,79.44
2019-05-16T00:05:54.506Z,79.38
2019-05-16T00:06:29.783Z,79.32
2019-05-16T00:07:07.902Z,78.90
2019-05-16T00:07:43.426Z,78.90
2019-05-16T00:08:19.316Z,79.23
2019-05-16T00:08:55.188Z,79.21
2019-05-16T00:09:31.947Z,79.17
2019-05-16T00:10:08.372Z,78.95
2019-05-16T00:10:44.586Z,78.95
2019-05-16T00:11:20.448Z,78.91
2019-05-16T00:11:58.102Z,78.94
2019-05-16T00:12:33.983Z,79.00
2019-05-16T00:13:10.008Z,79.00
2019-05-16T00:13:45.903Z,79.10
2019-05-16T00:14:21.952Z,79.04
2019-05-16T00:14:58.220Z,79.06
2019-05-16T00:15:34.221Z,79.10
2019-05-16T00:16:10.152Z,79.41
2019-05-16T00:16:48.240Z,79.41
2019-05-16T00:17:23.659Z,79.11
2019-05-16T00:17:59.551Z,79.08
2019-05-16T00:18:35.881Z,79.07
2019-05-16T00:19:13.740Z,79.05
2019-05-16T00:19:49.765Z,79.05
2019-05-16T00:20:28.132Z,79.07
2019-05-16T00:21:03.411Z,79.17
2019-05-16T00:21:39.383Z,79.15
2019-05-16T00:22:15.306Z,79.14
2019-05-16T00:22:51.189Z,79.12
2019-05-16T00:23:28.875Z,79.14
2019-05-16T00:24:04.785Z,79.01
2019-05-16T00:24:40.697Z,78.83
2019-05-16T00:25:17.950Z,78.83
2019-05-16T00:25:54.120Z,78.98
2019-05-16T00:26:29.995Z,78.99
2019-05-16T00:27:08.155Z,79.00
2019-05-16T00:27:43.661Z,79.00
2019-05-16T00:28:19.612Z,78.78
2019-05-16T00:28:55.556Z,79.03
2019-05-16T00:29:31.433Z,79.03
2019-05-16T00:30:08.902Z,78.44
2019-05-16T00:30:45.266Z,78.33
2019-05-16T00:31:21.197Z,78.28
2019-05-16T00:31:58.007Z,78.16
2019-05-16T00:32:38.722Z,77.96
2019-05-16T00:33:14.421Z,77.78
2019-05-16T00:33:50.437Z,77.78
2019-05-16T00:34:27.972Z,77.27
2019-05-16T00:35:03.975Z,77.27
2019-05-16T00:35:39.889Z,76.67
2019-05-16T00:36:15.806Z,76.88
2019-05-16T00:36:51.681Z,76.88
2019-05-16T00:37:28.699Z,76.73
2019-05-16T00:38:04.689Z,76.33
2019-05-16T00:38:40.537Z,76.33
2019-05-16T00:39:18.636Z,77.11
2019-05-16T00:39:54.766Z,77.15
2019-05-16T00:40:31.179Z,77.28
2019-05-16T00:41:08.518Z,77.99
2019-05-16T00:41:44.624Z,77.14
2019-05-16T00:42:20.997Z,77.14
2019-05-16T00:42:58.905Z,77.52
2019-05-16T00:43:35.117Z,77.52
2019-05-16T00:44:11.011Z,77.94
2019-05-16T00:44:47.903Z,77.94
2019-05-16T00:45:24.093Z,77.84
2019-05-16T00:45:59.950Z,77.84
2019-05-16T00:46:38.364Z,77.73
2019-05-16T00:47:14.362Z,77.79
2019-05-16T00:47:50.905Z,77.81
2019-05-16T00:48:28.841Z,77.91
2019-05-16T00:49:08.122Z,78.01
2019-05-16T00:49:44.191Z,77.86
2019-05-16T00:50:20.932Z,77.86
2019-05-16T00:50:58.441Z,77.71
2019-05-16T00:51:35.150Z,78.24
2019-05-16T00:52:11.420Z,78.24
2019-05-16T00:52:48.693Z,78.12
2019-05-16T00:53:25.776Z,78.16
2019-05-16T00:54:01.678Z,77.41
2019-05-16T00:54:38.534Z,77.41
2019-05-16T00:55:15.229Z,77.41
2019-05-16T00:55:51.222Z,77.41
2019-05-16T00:56:28.856Z,77.42
2019-05-16T00:57:08.323Z,77.07
2019-05-16T00:57:43.597Z,77.08
2019-05-16T00:58:19.837Z,77.08
2019-05-16T00:58:56.059Z,76.71
2019-05-16T00:59:32.756Z,76.51
2019-05-16T01:00:09.405Z,76.53
2019-05-16T01:00:50.302Z,76.26
2019-05-16T01:01:28.276Z,75.89
2019-05-16T01:02:04.239Z,75.89
2019-05-16T01:02:40.085Z,75.74
2019-05-16T01:03:16.008Z,75.54
2019-05-16T01:03:52.605Z,75.79
2019-05-16T01:04:29.218Z,75.79
2019-05-16T01:05:08.424Z,75.06
2019-05-16T01:05:47.910Z,74.89
2019-05-16T01:06:23.366Z,74.67
2019-05-16T01:07:01.731Z,74.38
2019-05-16T01:07:39.267Z,74.19
2019-05-16T01:08:15.182Z,73.95
2019-05-16T01:08:52.249Z,73.63
2019-05-16T01:09:29.067Z,73.41
2019-05-16T01:10:04.996Z,73.19
2019-05-16T01:10:40.863Z,72.99
2019-05-16T01:11:18.450Z,72.45
2019-05-16T01:11:54.400Z,72.47
2019-05-16T01:12:30.922Z,72.34
2019-05-16T01:13:07.968Z,72.32
2019-05-16T01:13:44.850Z,72.32
2019-05-16T01:14:20.827Z,72.34
2019-05-16T01:14:58.433Z,72.50
2019-05-16T01:15:34.664Z,72.74
2019-05-16T01:16:10.973Z,72.85
2019-05-16T01:16:48.788Z,72.98
2019-05-16T01:17:28.165Z,73.03
2019-05-16T01:18:03.425Z,73.18
2019-05-16T01:18:39.874Z,73.28
2019-05-16T01:19:18.561Z,73.43
2019-05-16T01:19:54.472Z,73.57
2019-05-16T01:20:30.985Z,73.32
2019-05-16T01:21:07.820Z,73.32
2019-05-16T01:21:44.378Z,74.02
2019-05-16T01:22:20.546Z,74.67
2019-05-16T01:22:58.142Z,74.26
2019-05-16T01:23:34.076Z,74.34
2019-05-16T01:24:10.085Z,74.43
2019-05-16T01:24:49.082Z,74.57
2019-05-16T01:25:24.871Z,74.81
2019-05-16T01:26:01.057Z,74.81
2019-05-16T01:27:49.585Z,75.93
2019-05-16T01:28:25.534Z,75.98
2019-05-16T01:29:01.425Z,75.98
2019-05-16T01:29:38.527Z,76.57
2019-05-16T01:30:14.777Z,76.86
2019-05-16T01:30:51.111Z,77.24
2019-05-16T01:31:27.977Z,77.94
2019-05-16T01:32:04.837Z,77.24
2019-05-16T01:32:41.637Z,77.24
2019-05-16T01:33:19.182Z,77.99
2019-05-16T01:33:55.403Z,77.99
2019-05-16T01:34:31.410Z,78.73
2019-05-16T01:35:08.335Z,78.61
2019-05-16T01:35:44.671Z,79.34
2019-05-16T01:36:33.323Z,79.25
2019-05-16T01:36:58.959Z,78.54
2019-05-16T01:37:35.229Z,79.58
2019-05-16T01:38:11.125Z,78.94
2019-05-16T01:38:48.115Z,78.94
2019-05-16T01:39:24.151Z,78.96
2019-05-16T01:40:00.038Z,78.99
2019-05-16T01:40:38.526Z,79.15
2019-05-16T01:41:13.767Z,78.74
2019-05-16T01:41:49.815Z,78.92
2019-05-16T01:42:27.722Z,79.10
2019-05-16T01:43:03.366Z,79.10
2019-05-16T01:43:39.382Z,79.06
2019-05-16T01:44:15.301Z,79.06
2019-05-16T01:44:51.121Z,79.30
2019-05-16T01:45:27.749Z,79.32
2019-05-16T01:46:03.787Z,79.25
2019-05-16T01:46:39.727Z,80.16
2019-05-16T01:47:15.626Z,79.28
2019-05-16T01:47:51.438Z,79.28
2019-05-16T01:48:29.253Z,79.69
2019-05-16T01:49:05.092Z,79.99
2019-05-16T01:49:40.964Z,80.13
2019-05-16T01:50:18.180Z,80.05
2019-05-16T01:50:54.873Z,80.05
2019-05-16T01:51:30.752Z,80.54
2019-05-16T01:52:08.469Z,80.67
2019-05-16T01:52:44.322Z,80.54
2019-05-16T01:53:25.092Z,80.45
2019-05-16T01:54:01.007Z,80.48
2019-05-16T01:54:38.820Z,80.48
2019-05-16T01:55:14.798Z,80.98
2019-05-16T01:55:50.721Z,81.00
2019-05-16T01:56:28.046Z,81.05
2019-05-16T01:57:04.175Z,81.12
2019-05-16T01:57:40.158Z,81.20
2019-05-16T01:58:19.422Z,81.21
2019-05-16T01:58:53.733Z,81.92
2019-05-16T01:59:29.605Z,81.92
2019-05-16T02:00:08.182Z,81.27
2019-05-16T02:00:52.687Z,80.53
2019-05-16T02:01:21.472Z,81.55
2019-05-16T02:02:00.728Z,81.32
2019-05-16T02:02:35.122Z,81.32
2019-05-16T02:03:11.116Z,81.18
2019-05-16T02:03:48.138Z,81.70
2019-05-16T02:04:24.192Z,81.45
2019-05-16T02:05:00.046Z,81.58
2019-05-16T02:05:35.908Z,81.58
2019-05-16T02:06:11.809Z,81.92
2019-05-16T02:06:53.753Z,82.35
2019-05-16T02:07:25.364Z,82.08
2019-05-16T02:08:01.253Z,82.08
2019-05-16T02:08:38.019Z,82.42
2019-05-16T02:09:14.123Z,82.59
2019-05-16T02:09:50.053Z,82.59
2019-05-16T02:10:28.320Z,82.68
2019-05-16T02:11:03.615Z,82.06
2019-05-16T02:11:39.612Z,82.06
2019-05-16T02:12:15.476Z,82.51
2019-05-16T02:12:52.072Z,82.51
2019-05-16T02:13:28.794Z,82.57
2019-05-16T02:14:04.836Z,82.63
2019-05-16T02:14:40.664Z,82.65
2019-05-16T02:15:18.245Z,82.23
2019-05-16T02:15:54.378Z,82.23
2019-05-16T02:16:30.244Z,82.66
2019-05-16T02:17:10.899Z,82.59
2019-05-16T02:17:43.883Z,82.26
2019-05-16T02:18:21.263Z,82.26
2019-05-16T02:18:58.897Z,82.62
2019-05-16T02:19:34.906Z,82.60
2019-05-16T02:20:10.809Z,82.75
2019-05-16T02:20:47.980Z,82.77
2019-05-16T02:21:24.241Z,82.92
2019-05-16T02:22:00.184Z,82.92
2019-05-16T02:22:36.016Z,82.50
2019-05-16T02:23:11.879Z,82.44
2019-05-16T02:23:49.052Z,82.44
2019-05-16T02:24:25.448Z,82.41
2019-05-16T02:25:01.283Z,82.20
2019-05-16T02:25:40.517Z,82.11
2019-05-16T02:26:14.796Z,81.91
2019-05-16T02:26:52.420Z,82.14
2019-05-16T02:27:28.828Z,82.17
2019-05-16T02:28:04.791Z,82.15
2019-05-16T02:28:43.852Z,82.20
2019-05-16T02:29:20.547Z,81.93
2019-05-16T02:29:56.129Z,81.93
2019-05-16T02:30:32.005Z,81.40
2019-05-16T02:31:11.953Z,81.36
2019-05-16T02:31:45.593Z,81.18
2019-05-16T02:32:22.228Z,80.76
2019-05-16T02:33:01.059Z,79.91
2019-05-16T02:33:36.199Z,79.91
2019-05-16T02:34:12.238Z,80.22
2019-05-16T02:34:48.162Z,80.08
2019-05-16T02:35:24.148Z,80.20
2019-05-16T02:36:01.777Z,80.22
2019-05-16T02:36:40.243Z,80.20
2019-05-16T02:37:24.245Z,80.24
2019-05-16T02:37:56.202Z,80.33
2019-05-16T02:38:32.137Z,80.33
2019-05-16T02:39:11.219Z,80.28
2019-05-16T02:39:46.487Z,80.28
2019-05-16T02:40:23.704Z,80.21
2019-05-16T02:41:02.666Z,80.21
2019-05-16T02:41:37.234Z,80.06
2019-05-16T02:42:13.093Z,80.14
2019-05-16T02:42:51.498Z,80.01
2019-05-16T02:43:26.888Z,80.01
2019-05-16T02:44:02.856Z,80.16
2019-05-16T02:44:41.242Z,80.18
2019-05-16T02:45:16.550Z,79.48
2019-05-16T02:45:52.501Z,79.81
2019-05-16T02:46:30.818Z,79.87
2019-05-16T02:47:06.070Z,79.87
2019-05-16T02:47:42.825Z,79.76
2019-05-16T02:48:21.320Z,80.34
2019-05-16T02:48:56.668Z,79.98
2019-05-16T02:49:34.187Z,79.98
2019-05-16T02:50:12.306Z,79.53
2019-05-16T02:50:51.188Z,79.17
2019-05-16T02:51:26.236Z,79.17
2019-05-16T02:52:02.093Z,78.99
2019-05-16T02:52:41.027Z,78.80
2019-05-16T02:53:15.636Z,78.80
2019-05-16T02:53:51.564Z,78.03
2019-05-16T02:54:27.448Z,78.03
2019-05-16T02:55:03.494Z,78.22
2019-05-16T02:55:41.098Z,77.91
2019-05-16T02:56:17.085Z,78.04
2019-05-16T02:56:53.015Z,77.29
2019-05-16T02:57:31.578Z,77.26
2019-05-16T02:58:06.516Z,77.26
2019-05-16T02:58:44.874Z,77.69
2019-05-16T02:59:20.799Z,77.69
2019-05-16T02:59:56.858Z,77.49
2019-05-16T03:00:41.949Z,77.42
2019-05-16T03:01:14.787Z,76.27
2019-05-16T03:01:52.018Z,76.27
2019-05-16T03:02:31.196Z,76.91
2019-05-16T03:03:07.060Z,76.66
2019-05-16T03:03:44.114Z,76.36
2019-05-16T03:04:21.294Z,75.67
2019-05-16T03:05:00.646Z,75.56
2019-05-16T03:05:35.943Z,75.57
2019-05-16T03:06:11.836Z,75.63
2019-05-16T03:06:51.124Z,75.52
2019-05-16T03:07:37.766Z,75.40
2019-05-16T03:08:05.422Z,75.34
2019-05-16T03:08:41.780Z,75.24
2019-05-16T03:09:20.777Z,75.33
2019-05-16T03:09:56.752Z,75.30
2019-05-16T03:10:33.631Z,75.24
2019-05-16T03:11:11.812Z,75.25
2019-05-16T03:11:50.836Z,74.80
2019-05-16T03:12:26.953Z,74.14
2019-05-16T03:13:03.032Z,74.56
2019-05-16T03:13:42.326Z,74.56
2019-05-16T03:14:21.249Z,74.77
2019-05-16T03:15:01.837Z,74.72
2019-05-16T03:15:35.784Z,74.85
2019-05-16T03:16:12.666Z,75.02
2019-05-16T03:16:50.623Z,75.02
2019-05-16T03:17:31.603Z,74.61
2019-05-16T03:18:06.992Z,74.96
2019-05-16T03:18:43.186Z,74.96
2019-05-16T03:19:21.657Z,75.18
2019-05-16T03:20:01.492Z,75.17
2019-05-16T03:20:40.796Z,75.36
2019-05-16T03:21:16.943Z,75.19
2019-05-16T03:21:53.346Z,75.31
2019-05-16T03:22:31.495Z,75.20
2019-05-16T03:23:11.017Z,75.35
2019-05-16T03:23:45.920Z,75.84
2019-05-16T03:24:22.284Z,75.77
2019-05-16T03:25:01.135Z,75.68
2019-05-16T03:25:41.541Z,75.65
2019-05-16T03:26:15.766Z,75.67
2019-05-16T03:26:51.625Z,75.98
2019-05-16T03:27:30.360Z,75.98
2019-05-16T03:28:05.332Z,76.06
2019-05-16T03:28:41.609Z,76.28
2019-05-16T03:29:17.536Z,76.86
2019-05-16T03:29:53.441Z,76.86
2019-05-16T03:30:35.219Z,75.86
2019-05-16T03:31:07.537Z,76.48
2019-05-16T03:31:45.031Z,76.42
2019-05-16T03:32:24.286Z,76.42
2019-05-16T03:33:04.269Z,76.02
2019-05-16T03:33:43.581Z,76.02
2019-05-16T03:34:16.627Z,76.29
2019-05-16T03:34:54.663Z,76.29
2019-05-16T03:35:33.874Z,76.33
2019-05-16T03:36:14.023Z,77.07
2019-05-16T03:36:45.046Z,77.07
2019-05-16T03:37:24.961Z,76.75
2019-05-16T03:38:01.447Z,76.75
2019-05-16T03:38:36.356Z,76.89
2019-05-16T03:39:12.231Z,77.48
2019-05-16T03:39:51.265Z,78.07
2019-05-16T03:40:31.396Z,78.07
2019-05-16T03:41:07.562Z,77.88
2019-05-16T03:41:43.438Z,78.13
2019-05-16T03:42:20.502Z,78.13
2019-05-16T03:42:56.624Z,77.94
2019-05-16T03:43:32.494Z,77.94
2019-05-16T03:44:11.100Z,78.41
2019-05-16T03:44:46.078Z,78.88
2019-05-16T03:45:22.089Z,78.70
2019-05-16T03:45:57.986Z,78.70
2019-05-16T03:46:33.921Z,78.55
2019-05-16T03:47:11.267Z,78.66
2019-05-16T03:47:50.824Z,78.66
2019-05-16T03:48:25.058Z,79.08
2019-05-16T03:49:02.399Z,79.18
2019-05-16T03:49:41.978Z,79.18
2019-05-16T03:50:16.470Z,79.01
2019-05-16T03:50:52.326Z,79.04
2019-05-16T03:51:30.721Z,79.14
2019-05-16T03:52:05.924Z,79.14
2019-05-16T03:52:43.519Z,78.79
2019-05-16T03:53:21.326Z,79.46
2019-05-16T03:53:57.749Z,78.90
2019-05-16T03:54:33.641Z,78.90
2019-05-16T03:55:11.084Z,79.08
2019-05-16T03:55:47.373Z,78.56
2019-05-16T03:56:24.209Z,78.54
2019-05-16T03:57:00.601Z,78.58
2019-05-16T03:57:36.690Z,78.60
2019-05-16T03:58:12.563Z,78.56
2019-05-16T03:58:50.931Z,78.55
2019-05-16T03:59:26.321Z,78.56
2019-05-16T04:00:03.836Z,78.58
2019-05-16T04:01:01.813Z,78.48
2019-05-16T04:01:35.754Z,78.30
2019-05-16T04:02:11.786Z,78.53
2019-05-16T04:02:47.666Z,78.21
2019-05-16T04:03:28.179Z,78.08
2019-05-16T04:04:01.999Z,78.21
2019-05-16T04:04:37.906Z,78.25
2019-05-16T04:05:14.027Z,78.01
2019-05-16T04:05:52.541Z,77.76
2019-05-16T04:06:30.972Z,77.81
2019-05-16T04:07:05.419Z,77.70
2019-05-16T04:07:41.948Z,77.71
2019-05-16T04:08:23.742Z,77.35
2019-05-16T04:08:55.619Z,77.24
2019-05-16T04:09:31.785Z,77.11
2019-05-16T04:10:10.919Z,76.72
2019-05-16T04:10:46.290Z,76.31
2019-05-16T04:11:23.361Z,76.00
2019-05-16T04:12:01.802Z,75.92
2019-05-16T04:12:37.657Z,75.77
2019-05-16T04:13:13.591Z,75.43
2019-05-16T04:13:51.105Z,75.10
2019-05-16T04:14:27.135Z,74.81
2019-05-16T04:15:02.997Z,74.36
2019-05-16T04:15:40.778Z,74.06
2019-05-16T04:16:16.648Z,73.71
2019-05-16T04:16:52.540Z,73.39
2019-05-16T04:17:31.760Z,73.16
2019-05-16T04:18:07.279Z,73.06
2019-05-16T04:18:43.124Z,73.11
2019-05-16T04:19:21.064Z,73.04
2019-05-16T04:19:56.654Z,72.74
2019-05-16T04:20:32.546Z,72.25
2019-05-16T04:21:11.650Z,72.02
2019-05-16T04:21:46.122Z,71.69
2019-05-16T04:22:22.016Z,71.88
2019-05-16T04:23:00.934Z,71.73
2019-05-16T04:23:35.624Z,71.37
2019-05-16T04:24:12.516Z,71.01
2019-05-16T04:24:51.247Z,71.09
2019-05-16T04:25:26.343Z,70.85
2019-05-16T04:26:02.240Z,70.88
2019-05-16T04:26:40.938Z,70.70
2019-05-16T04:27:15.782Z,70.68
2019-05-16T04:27:51.829Z,70.63
2019-05-16T04:28:27.721Z,71.24
2019-05-16T04:29:03.572Z,71.15
2019-05-16T04:29:40.793Z,70.85
2019-05-16T04:30:21.931Z,70.79
2019-05-16T04:30:56.922Z,70.71
2019-05-16T04:31:32.850Z,71.10
2019-05-16T04:32:11.059Z,70.52
2019-05-16T04:32:46.599Z,70.62
2019-05-16T04:33:22.831Z,70.68
2019-05-16T04:34:01.086Z,70.83
2019-05-16T04:34:36.556Z,70.93
2019-05-16T04:35:12.460Z,70.67
2019-05-16T04:35:51.803Z,70.61
2019-05-16T04:36:26.028Z,70.60
2019-05-16T04:37:01.884Z,70.24
2019-05-16T04:37:37.871Z,70.25
2019-05-16T04:38:30.202Z,70.13
2019-05-16T04:38:51.698Z,70.23
2019-05-16T04:39:31.580Z,70.27
2019-05-16T04:40:05.670Z,69.97
2019-05-16T04:40:42.430Z,69.92
2019-05-16T04:41:21.154Z,69.92
2019-05-16T04:41:56.182Z,70.04
2019-05-16T04:42:32.025Z,69.95
2019-05-16T04:43:07.907Z,69.77
2019-05-16T04:43:43.775Z,69.77
2019-05-16T04:44:21.336Z,69.73
2019-05-16T04:45:00.797Z,69.50
2019-05-16T04:45:35.012Z,69.30
2019-05-16T04:46:11.634Z,69.18
2019-05-16T04:46:50.720Z,69.00
2019-05-16T04:47:25.599Z,68.86
2019-05-16T04:48:01.450Z,68.71
2019-05-16T04:48:37.453Z,68.76
2019-05-16T04:49:13.428Z,68.71
2019-05-16T04:49:51.876Z,68.53
2019-05-16T04:50:30.987Z,68.29
2019-05-16T04:51:05.634Z,67.76
2019-05-16T04:51:41.827Z,67.38
2019-05-16T04:52:17.718Z,67.41
2019-05-16T04:52:53.643Z,67.62
2019-05-16T04:53:31.655Z,67.65
2019-05-16T04:54:08.112Z,67.59
2019-05-16T04:54:44.860Z,67.55
2019-05-16T04:55:22.083Z,67.52
2019-05-16T04:56:01.413Z,67.71
2019-05-16T04:56:35.721Z,67.66
2019-05-16T04:57:12.138Z,67.69
2019-05-16T04:57:51.122Z,67.51
2019-05-16T04:58:26.011Z,67.31
2019-05-16T04:59:01.925Z,67.14
2019-05-16T04:59:37.806Z,67.14
2019-05-16T05:00:14.651Z,67.18
2019-05-16T05:00:51.670Z,67.12
2019-05-16T05:01:33.221Z,67.07
2019-05-16T05:02:11.955Z,67.00
2019-05-16T05:02:46.891Z,67.07
2019-05-16T05:03:22.831Z,67.16
2019-05-16T05:04:09.031Z,66.88
2019-05-16T05:04:36.416Z,66.93
2019-05-16T05:05:12.911Z,67.14
2019-05-16T05:05:51.261Z,67.44
2019-05-16T05:06:26.730Z,67.87
2019-05-16T05:07:02.591Z,68.33
2019-05-16T05:07:40.667Z,68.69
2019-05-16T05:08:16.167Z,68.58
2019-05-16T05:08:58.304Z,68.41
2019-05-16T05:09:31.575Z,68.35
2019-05-16T05:10:10.960Z,68.32
2019-05-16T05:10:45.850Z,68.46
2019-05-16T05:11:21.885Z,68.42
2019-05-16T05:12:03.949Z,68.52
2019-05-16T05:12:35.677Z,68.08
2019-05-16T05:13:11.650Z,67.94
2019-05-16T05:13:50.642Z,67.91
2019-05-16T05:14:26.420Z,67.76
2019-05-16T05:15:02.343Z,67.56
2019-05-16T05:15:40.139Z,67.71
2019-05-16T05:16:16.230Z,67.71
2019-05-16T05:16:52.127Z,67.63
2019-05-16T05:17:30.422Z,67.64
2019-05-16T05:18:05.791Z,67.57
2019-05-16T05:18:41.682Z,67.61
2019-05-16T05:19:20.061Z,67.77
2019-05-16T05:19:55.334Z,67.77
2019-05-16T05:20:31.247Z,67.94
2019-05-16T05:21:07.106Z,68.00
2019-05-16T05:21:42.962Z,68.20
2019-05-16T05:22:19.883Z,68.03
2019-05-16T05:22:56.177Z,67.91
2019-05-16T05:23:32.054Z,67.82
2019-05-16T05:24:10.886Z,67.48
2019-05-16T05:24:47.218Z,67.15
2019-05-16T05:25:23.234Z,67.07
2019-05-16T05:26:00.259Z,66.71
2019-05-16T05:26:36.543Z,66.58
2019-05-16T05:27:12.485Z,66.43
2019-05-16T05:27:50.104Z,66.30
2019-05-16T05:28:26.415Z,66.05
2019-05-16T05:29:02.287Z,65.93
2019-05-16T05:29:39.803Z,65.91
2019-05-16T05:30:15.845Z,66.01
2019-05-16T05:30:51.739Z,66.06
2019-05-16T05:31:27.615Z,65.71
2019-05-16T05:32:05.156Z,65.59
2019-05-16T05:32:41.585Z,65.64
2019-05-16T05:33:17.493Z,65.84
2019-05-16T05:33:53.508Z,65.74
2019-05-16T05:34:30.457Z,65.48
2019-05-16T05:35:06.699Z,65.45
2019-05-16T05:35:43.294Z,65.78
2019-05-16T05:36:21.009Z,65.88
2019-05-16T05:36:56.924Z,65.91
2019-05-16T05:37:32.816Z,65.61
2019-05-16T05:38:10.531Z,65.24
2019-05-16T05:38:48.376Z,65.28
2019-05-16T05:39:24.353Z,65.34
2019-05-16T05:40:00.242Z,65.62
2019-05-16T05:40:36.088Z,65.80
2019-05-16T05:41:12.014Z,65.81
2019-05-16T05:41:50.289Z,65.90
2019-05-16T05:42:25.781Z,65.64
2019-05-16T05:43:01.667Z,65.64
2019-05-16T05:43:39.634Z,65.65
2019-05-16T05:44:15.420Z,65.43
2019-05-16T05:44:51.589Z,64.88
2019-05-16T05:45:27.474Z,64.96
2019-05-16T05:46:03.322Z,64.74
2019-05-16T05:46:40.054Z,64.58
2019-05-16T05:47:16.275Z,64.71
2019-05-16T05:47:52.158Z,64.77
2019-05-16T05:48:30.547Z,64.89
2019-05-16T05:49:05.730Z,64.98
2019-05-16T05:49:41.752Z,65.20
2019-05-16T05:50:20.774Z,65.18
2019-05-16T05:50:56.754Z,64.90
2019-05-16T05:51:32.624Z,64.84
2019-05-16T05:52:11.761Z,64.01
2019-05-16T05:52:46.379Z,63.59
2019-05-16T05:53:22.292Z,63.65
2019-05-16T05:54:00.132Z,63.71
2019-05-16T05:54:35.947Z,63.68
2019-05-16T05:55:11.887Z,63.65
2019-05-16T05:55:50.662Z,63.56
2019-05-16T05:56:25.420Z,63.42
2019-05-16T05:57:01.335Z,63.51
2019-05-16T05:57:37.194Z,63.65
2019-05-16T05:58:13.017Z,63.89
2019-05-16T05:58:51.191Z,63.84
2019-05-16T05:59:26.655Z,63.64
2019-05-16T06:00:02.583Z,63.45
2019-05-16T06:00:40.577Z,63.29
2019-05-16T06:01:16.253Z,63.37
2019-05-16T06:01:52.151Z,63.66
2019-05-16T06:02:27.990Z,63.41
2019-05-16T06:03:04.068Z,63.34
2019-05-16T06:03:40.012Z,63.29
2019-05-16T06:04:16.075Z,63.37
2019-05-16T06:04:51.999Z,63.40
2019-05-16T06:05:30.417Z,63.17
2019-05-16T06:06:05.672Z,62.73
2019-05-16T06:06:44.877Z,62.49
2019-05-16T06:07:20.493Z,62.52
2019-05-16T06:07:56.885Z,62.66
2019-05-16T06:08:32.792Z,62.82
2019-05-16T06:09:18.284Z,63.07
2019-05-16T06:09:53.629Z,62.72
2019-05-16T06:10:24.310Z,62.53
2019-05-16T06:11:01.768Z,62.77
2019-05-16T06:11:40.602Z,62.79
2019-05-16T06:12:16.649Z,63.32
2019-05-16T06:12:52.511Z,63.40
2019-05-16T06:13:30.811Z,63.30
2019-05-16T06:14:06.897Z,63.25
2019-05-16T06:14:42.783Z,63.00
2019-05-16T06:15:20.285Z,62.86
2019-05-16T06:15:56.677Z,62.86
2019-05-16T06:16:33.348Z,62.77
2019-05-16T06:17:11.535Z,62.63
2019-05-16T06:17:47.864Z,62.51
2019-05-16T06:18:23.744Z,62.48
2019-05-16T06:19:00.913Z,62.03
2019-05-16T06:19:40.255Z,61.92
2019-05-16T06:20:16.290Z,62.37
2019-05-16T06:20:52.192Z,62.19
2019-05-16T06:21:33.041Z,62.09
2019-05-16T06:22:05.939Z,62.23
2019-05-16T06:22:41.864Z,62.25
2019-05-16T06:23:20.658Z,61.76
2019-05-16T06:23:56.133Z,61.29
2019-05-16T06:24:32.176Z,61.29
2019-05-16T06:25:12.974Z,61.64
2019-05-16T06:25:45.873Z,61.39
2019-05-16T06:26:21.828Z,61.40
2019-05-16T06:27:00.932Z,61.36
2019-05-16T06:27:36.888Z,61.32
2019-05-16T06:28:12.793Z,61.32
2019-05-16T06:28:50.435Z,61.26
2019-05-16T06:29:26.349Z,61.35
2019-05-16T06:30:02.290Z,61.50
2019-05-16T06:30:40.638Z,61.34
2019-05-16T06:31:15.997Z,61.25
2019-05-16T06:31:52.197Z,61.32
2019-05-16T06:32:30.240Z,61.30
2019-05-16T06:33:05.874Z,61.27
2019-05-16T06:33:41.827Z,61.11
2019-05-16T06:34:17.700Z,60.56
2019-05-16T06:34:53.580Z,60.70
2019-05-16T06:35:30.033Z,61.09
2019-05-16T06:36:06.140Z,61.43
2019-05-16T06:36:42.454Z,61.07
2019-05-16T06:37:20.535Z,61.27
2019-05-16T06:37:56.108Z,61.39
2019-05-16T06:38:32.079Z,61.28
2019-05-16T06:39:11.403Z,60.92
2019-05-16T06:39:47.117Z,60.58
2019-05-16T06:40:23.181Z,60.82
2019-05-16T06:41:00.363Z,61.34
2019-05-16T06:41:36.831Z,61.51
2019-05-16T06:42:13.953Z,61.68
2019-05-16T06:42:51.689Z,61.78
2019-05-16T06:43:29.986Z,61.76
2019-05-16T06:44:07.330Z,61.70
2019-05-16T06:44:43.327Z,61.89
2019-05-16T06:45:20.469Z,61.93
2019-05-16T06:45:56.729Z,61.90
2019-05-16T06:46:40.233Z,61.43
2019-05-16T06:47:19.378Z,61.28
2019-05-16T06:47:50.375Z,61.64
2019-05-16T06:48:26.123Z,61.80
2019-05-16T06:49:02.026Z,62.01
2019-05-16T06:49:40.171Z,61.98
2019-05-16T06:50:15.757Z,61.80
2019-05-16T06:50:52.037Z,61.92
2019-05-16T06:51:30.568Z,62.16
2019-05-16T06:52:06.487Z,62.25
2019-05-16T06:52:45.714Z,62.38
2019-05-16T06:53:21.099Z,62.48
2019-05-16T06:53:57.289Z,62.44
2019-05-16T06:54:33.204Z,62.45
2019-05-16T06:55:10.081Z,62.61
2019-05-16T06:55:46.353Z,62.73
2019-05-16T06:56:22.218Z,62.70
2019-05-16T06:57:00.111Z,62.62
2019-05-16T06:57:35.824Z,62.43
2019-05-16T06:58:11.652Z,62.18
2019-05-16T06:58:51.433Z,62.02
2019-05-16T06:59:25.287Z,61.76
2019-05-16T07:00:02.738Z,61.13
2019-05-16T07:00:40.708Z,60.54
2019-05-16T07:01:16.682Z,60.70
2019-05-16T07:01:52.649Z,60.54
2019-05-16T07:02:33.682Z,60.56
2019-05-16T07:03:09.347Z,60.63
2019-05-16T07:03:44.225Z,60.47
2019-05-16T07:04:20.252Z,60.22
2019-05-16T07:04:56.167Z,60.02
2019-05-16T07:05:32.014Z,59.95
2019-05-16T07:06:11.010Z,60.07
2019-05-16T07:06:55.991Z,60.56
2019-05-16T07:07:23.960Z,60.59
2019-05-16T07:07:59.894Z,60.79
2019-05-16T07:08:35.820Z,60.69
2019-05-16T07:09:12.148Z,60.53
2019-05-16T07:09:58.131Z,60.69
2019-05-16T07:10:25.700Z,60.62
2019-05-16T07:11:01.570Z,60.43
2019-05-16T07:11:39.644Z,60.52
2019-05-16T07:12:15.260Z,60.63
2019-05-16T07:12:51.139Z,60.71
2019-05-16T07:13:27.006Z,60.77
2019-05-16T07:14:03.010Z,60.47
2019-05-16T07:14:40.559Z,60.15
2019-05-16T07:15:17.011Z,59.78
2019-05-16T07:15:53.047Z,59.53
2019-05-16T07:16:29.934Z,59.39
2019-05-16T07:17:05.979Z,58.85
2019-05-16T07:17:42.054Z,59.02
2019-05-16T07:18:20.405Z,59.06
2019-05-16T07:18:55.633Z,59.64
2019-05-16T07:19:31.509Z,59.71
2019-05-16T07:20:10.169Z,59.67
2019-05-16T07:20:46.201Z,59.75
2019-05-16T07:21:22.043Z,59.91
2019-05-16T07:21:59.784Z,60.01
2019-05-16T07:22:35.758Z,60.34
2019-05-16T07:23:11.651Z,60.42
2019-05-16T07:23:47.492Z,60.50
2019-05-16T07:24:23.525Z,60.58
2019-05-16T07:24:59.952Z,60.74
2019-05-16T07:25:36.083Z,60.79
2019-05-16T07:26:11.987Z,60.84
2019-05-16T07:26:50.045Z,60.78
2019-05-16T07:27:25.545Z,60.87
2019-05-16T07:28:01.444Z,61.14
2019-05-16T07:28:37.351Z,61.23
2019-05-16T07:29:14.942Z,61.20
2019-05-16T07:29:52.141Z,61.32
2019-05-16T07:30:30.300Z,61.42
2019-05-16T07:31:14.860Z,61.58
2019-05-16T07:31:44.221Z,61.72
2019-05-16T07:32:20.089Z,62.15
2019-05-16T07:32:56.031Z,61.93
2019-05-16T07:33:31.936Z,61.90
2019-05-16T07:34:10.793Z,61.83
2019-05-16T07:34:45.653Z,61.98
2019-05-16T07:35:21.649Z,62.11
2019-05-16T07:35:57.601Z,62.19
2019-05-16T07:36:33.611Z,62.29
2019-05-16T07:37:10.815Z,62.54
2019-05-16T07:37:46.752Z,62.90
2019-05-16T07:38:22.625Z,62.89
2019-05-16T07:38:59.805Z,62.62
2019-05-16T07:39:38.655Z,62.45
2019-05-16T07:40:19.661Z,62.38
2019-05-16T07:40:52.749Z,62.49
2019-05-16T07:41:31.066Z,62.72
2019-05-16T07:42:07.167Z,62.79
2019-05-16T07:42:43.018Z,62.69
2019-05-16T07:43:20.481Z,62.64
2019-05-16T07:43:56.559Z,62.62
2019-05-16T07:44:32.418Z,62.63
2019-05-16T07:45:10.887Z,62.55
2019-05-16T07:45:46.567Z,62.62
2019-05-16T07:46:22.458Z,62.75
2019-05-16T07:47:00.790Z,62.71
2019-05-16T07:47:36.074Z,62.75
2019-05-16T07:48:11.987Z,62.70
2019-05-16T07:48:51.381Z,62.41
2019-05-16T07:49:25.591Z,62.13
2019-05-16T07:50:01.478Z,62.12
2019-05-16T07:50:40.426Z,62.52
2019-05-16T07:51:15.852Z,62.42
2019-05-16T07:51:51.707Z,62.20
2019-05-16T07:52:27.641Z,62.31
2019-05-16T07:53:03.611Z,62.41
2019-05-16T07:53:40.313Z,62.51
2019-05-16T07:54:16.532Z,62.58